Time;durP1;ratioP1;P1;durP2;ratioP2;P2;SDS_P1;SDS_P2;PMS_P1;PMS_P2;Temp;Humidity;BMP_temperature;BMP_pressure;BME280_temperature;BME280_humidity;BME280_pressure;Samples;Min_cycle;Max_cycle;Signal;HPM_P1;HPM_P2
2024/01/10 00:01:17;;;;;;;43.83;23.88;;;-6.70;99.90;;;;;;5009321;28;20168;-65
2024/01/10 00:03:43;;;;;;;31.30;18.27;;;-6.70;99.90;;;;;;5010244;28;20212;-65
2024/01/10 00:06:09;;;;;;;44.80;23.53;;;-6.70;99.90;;;;;;5010542;28;21016;-64
2024/01/10 00:08:35;;;;;;;42.75;24.15;;;-6.80;99.90;;;;;;5010896;28;20514;-64
2024/01/10 00:11:01;;;;;;;42.30;21.40;;;-6.70;99.90;;;;;;5011038;28;20279;-64
2024/01/10 00:13:27;;;;;;;48.13;25.80;;;-6.80;99.90;;;;;;5017562;28;20186;-64
2024/01/10 00:15:55;;;;;;;38.13;20.90;;;-6.80;99.90;;;;;;5010807;28;20717;-64
2024/01/10 00:18:21;;;;;;;43.50;23.10;;;-6.70;99.90;;;;;;5009719;28;20553;-65
2024/01/10 00:20:47;;;;;;;40.33;22.10;;;-6.70;99.90;;;;;;5010207;28;20494;-65
2024/01/10 00:23:13;;;;;;;44.60;21.00;;;-6.70;99.90;;;;;;5010223;28;20407;-66
2024/01/10 00:25:39;;;;;;;43.37;21.37;;;-6.70;99.90;;;;;;5009811;28;20511;-67
2024/01/10 00:28:05;;;;;;;44.17;21.87;;;-6.70;99.90;;;;;;5010241;28;20619;-66
2024/01/10 00:30:30;;;;;;;47.03;24.27;;;-6.80;99.90;;;;;;5018022;28;20411;-65
2024/01/10 00:32:56;;;;;;;51.00;23.17;;;-6.80;99.90;;;;;;5009885;28;20466;-65
2024/01/10 00:35:21;;;;;;;48.00;24.17;;;-6.80;99.90;;;;;;5011305;28;20216;-66
2024/01/10 00:37:47;;;;;;;54.83;26.17;;;-6.80;99.90;;;;;;5010186;28;20222;-66
2024/01/10 00:40:12;;;;;;;48.80;24.60;;;-6.80;99.90;;;;;;5010188;28;20612;-66
2024/01/10 00:42:38;;;;;;;51.60;24.40;;;-6.80;99.90;;;;;;5009631;28;20177;-64
2024/01/10 00:45:04;;;;;;;38.30;24.37;;;-6.80;99.90;;;;;;5009826;28;20195;-65
2024/01/10 00:47:30;;;;;;;49.35;23.67;;;-6.70;99.90;;;;;;5009806;28;20232;-65
2024/01/10 00:49:56;;;;;;;52.90;25.37;;;-6.70;99.90;;;;;;5010017;28;20169;-65
2024/01/10 00:52:21;;;;;;;45.57;25.60;;;-6.70;99.90;;;;;;5014363;28;20611;-65
2024/01/10 00:54:47;;;;;;;44.47;22.67;;;-6.70;99.90;;;;;;5014041;28;20624;-64
2024/01/10 00:57:12;;;;;;;45.47;27.97;;;-6.70;99.90;;;;;;5016462;28;20197;-64
2024/01/10 00:59:38;;;;;;;51.30;23.40;;;-6.70;99.90;;;;;;5013557;28;20208;-65
2024/01/10 01:02:04;;;;;;;47.37;24.30;;;-6.80;99.90;;;;;;5013688;28;20160;-65
2024/01/10 01:04:30;;;;;;;35.03;21.13;;;-6.80;99.90;;;;;;5013757;28;20169;-65
2024/01/10 01:06:55;;;;;;;44.50;25.37;;;-6.80;99.90;;;;;;5013361;28;20849;-65
2024/01/10 01:09:21;;;;;;;43.97;24.43;;;-6.80;99.90;;;;;;5013488;28;20184;-63
2024/01/10 01:11:46;;;;;;;46.17;23.17;;;-6.90;99.90;;;;;;5013005;28;20230;-65
2024/01/10 01:14:12;;;;;;;43.50;21.70;;;-6.90;99.90;;;;;;5013308;28;20215;-64
2024/01/10 01:16:37;;;;;;;44.30;22.67;;;-6.80;99.90;;;;;;5013132;28;20254;-65
2024/01/10 01:19:03;;;;;;;38.60;24.50;;;-6.80;99.90;;;;;;5011479;28;20227;-65
2024/01/10 01:21:29;;;;;;;42.33;22.17;;;-6.80;99.90;;;;;;5013488;28;20179;-66
2024/01/10 01:23:55;;;;;;;43.65;27.90;;;-6.80;99.90;;;;;;4994733;28;20200;-65
2024/01/10 01:26:20;;;;;;;45.17;23.60;;;-6.80;99.90;;;;;;5013313;28;20704;-66
2024/01/10 01:28:46;;;;;;;42.90;23.37;;;-6.80;99.90;;;;;;5013443;28;20172;-66
2024/01/10 01:31:11;;;;;;;42.53;23.70;;;-6.80;99.90;;;;;;5012952;28;20169;-66
2024/01/10 01:33:39;;;;;;;35.77;21.50;;;-6.80;99.90;;;;;;5013023;28;20192;-64
2024/01/10 01:36:05;;;;;;;48.40;23.50;;;-6.80;99.90;;;;;;5012469;28;20215;-64
2024/01/10 01:38:31;;;;;;;42.37;22.37;;;-6.80;99.90;;;;;;5013955;28;21076;-65
2024/01/10 01:40:57;;;;;;;40.27;20.87;;;-6.80;99.90;;;;;;5013465;28;20509;-65
2024/01/10 01:43:24;;;;;;;39.20;20.50;;;-6.80;99.90;;;;;;5013979;28;20658;-64
2024/01/10 01:45:52;;;;;;;45.07;23.10;;;-6.80;99.90;;;;;;5012993;28;20208;-65
2024/01/10 01:48:19;;;;;;;39.73;22.57;;;-6.80;99.90;;;;;;5009049;28;20426;-66
2024/01/10 01:50:45;;;;;;;35.83;24.70;;;-6.80;99.90;;;;;;5007721;28;20434;-64
2024/01/10 01:53:12;;;;;;;39.43;24.07;;;-6.80;99.90;;;;;;5010735;28;20415;-66
2024/01/10 01:55:38;;;;;;;43.43;24.20;;;-6.80;99.90;;;;;;5012627;28;20432;-64
2024/01/10 01:58:04;;;;;;;48.90;22.63;;;-6.70;99.90;;;;;;5003154;28;20898;-65
2024/01/10 02:00:30;;;;;;;30.47;18.97;;;-6.70;99.90;;;;;;5009647;28;20173;-64
2024/01/10 02:02:58;;;;;;;44.77;23.10;;;-6.70;99.90;;;;;;5020841;28;20231;-64
2024/01/10 02:05:24;;;;;;;42.70;22.40;;;-6.70;99.90;;;;;;5012530;28;20477;-65
2024/01/10 02:07:50;;;;;;;34.80;20.40;;;-6.60;99.90;;;;;;5012070;28;20415;-66
2024/01/10 02:10:16;;;;;;;37.97;19.70;;;-6.70;99.90;;;;;;5015890;28;20423;-66
2024/01/10 02:12:41;;;;;;;51.83;20.97;;;-6.70;99.90;;;;;;5006493;28;20607;-65
2024/01/10 02:15:07;;;;;;;48.67;23.17;;;-6.70;99.90;;;;;;5009298;28;20406;-66
2024/01/10 02:17:33;;;;;;;34.43;19.20;;;-6.70;99.90;;;;;;5008001;28;20188;-65
2024/01/10 02:20:09;;;;;;;37.93;20.27;;;-6.60;99.90;;;;;;5011332;28;20176;-63
2024/01/10 02:22:34;;;;;;;31.85;20.80;;;-6.60;99.90;;;;;;4997049;28;20183;-66
2024/01/10 02:25:00;;;;;;;42.63;21.57;;;-6.60;99.90;;;;;;5007702;28;20176;-65
2024/01/10 02:27:26;;;;;;;39.17;23.17;;;-6.60;99.90;;;;;;5010519;28;20200;-65
2024/01/10 02:29:53;;;;;;;34.37;24.53;;;-6.60;99.90;;;;;;5019373;28;20168;-64
2024/01/10 02:32:19;;;;;;;42.73;19.50;;;-6.60;99.90;;;;;;5012189;28;20461;-65
2024/01/10 02:34:45;;;;;;;50.83;23.33;;;-6.60;99.90;;;;;;5012014;28;20427;-64
2024/01/10 02:37:10;;;;;;;50.13;21.63;;;-6.60;99.90;;;;;;5012357;28;20216;-65
2024/01/10 02:39:36;;;;;;;31.70;19.17;;;-6.60;99.90;;;;;;5006078;28;20266;-65
2024/01/10 02:42:01;;;;;;;38.20;19.97;;;-6.60;99.90;;;;;;5012753;28;20219;-65
2024/01/10 02:44:28;;;;;;;36.63;20.23;;;-6.60;99.90;;;;;;5005406;28;21229;-65
2024/01/10 02:46:53;;;;;;;51.63;21.90;;;-6.60;99.90;;;;;;5011050;28;20557;-66
2024/01/10 02:49:19;;;;;;;41.63;25.33;;;-6.70;99.90;;;;;;5011788;28;20569;-65
2024/01/10 02:51:45;;;;;;;45.63;20.20;;;-6.70;99.90;;;;;;5011631;28;20254;-65
2024/01/10 02:54:11;;;;;;;36.27;20.90;;;-6.80;99.90;;;;;;5011408;28;20624;-65
2024/01/10 02:56:36;;;;;;;37.80;20.70;;;-6.90;99.90;;;;;;5011350;28;20441;-66
2024/01/10 02:59:02;;;;;;;53.50;25.27;;;-6.90;99.90;;;;;;5012813;28;20202;-65
2024/01/10 03:01:28;;;;;;;46.23;21.67;;;-7.00;99.90;;;;;;5011542;28;20176;-65
2024/01/10 03:03:53;;;;;;;36.83;23.33;;;-7.00;99.90;;;;;;5010001;28;20418;-65
2024/01/10 03:06:19;;;;;;;45.80;22.07;;;-7.10;99.90;;;;;;5011542;28;20220;-64
2024/01/10 03:08:45;;;;;;;39.10;23.40;;;-7.10;99.90;;;;;;5014817;28;20199;-65
2024/01/10 03:11:10;;;;;;;41.20;22.83;;;-7.10;99.90;;;;;;5011394;28;20290;-65
2024/01/10 03:13:37;;;;;;;43.83;23.13;;;-7.10;99.90;;;;;;5010590;28;20176;-65
2024/01/10 03:16:03;;;;;;;43.53;22.20;;;-7.10;99.90;;;;;;5010580;28;20192;-66
2024/01/10 03:18:29;;;;;;;44.40;22.83;;;-7.10;99.90;;;;;;5009601;28;20299;-65
2024/01/10 03:20:55;;;;;;;47.63;21.33;;;-7.10;99.90;;;;;;5010896;28;20428;-65
2024/01/10 03:23:21;;;;;;;40.30;21.97;;;-7.10;99.90;;;;;;5010748;28;20176;-66
2024/01/10 03:25:47;;;;;;;45.40;24.00;;;-7.10;99.90;;;;;;5010913;28;20443;-66
2024/01/10 03:28:19;;;;;;;41.63;21.60;;;-7.10;99.90;;;;;;5010857;28;20419;-65
2024/01/10 03:30:45;;;;;;;50.13;23.83;;;-7.10;99.90;;;;;;5010694;28;20938;-65
2024/01/10 03:33:11;;;;;;;39.60;22.43;;;-7.10;99.90;;;;;;5011199;28;20550;-64
2024/01/10 03:35:37;;;;;;;44.23;20.37;;;-7.10;99.90;;;;;;5005983;28;20226;-65
2024/01/10 03:38:02;;;;;;;38.73;22.27;;;-7.10;99.90;;;;;;5009550;28;20447;-64
2024/01/10 03:40:28;;;;;;;48.53;21.37;;;-7.10;99.90;;;;;;5006040;28;20256;-65
2024/01/10 03:42:53;;;;;;;43.73;22.70;;;-7.10;99.90;;;;;;5011290;28;20331;-66
2024/01/10 03:45:22;;;;;;;41.17;23.57;;;-7.20;99.90;;;;;;5008612;28;20188;-65
2024/01/10 03:47:49;;;;;;;39.85;21.83;;;-7.20;99.90;;;;;;5002604;28;20180;-65
2024/01/10 03:50:19;;;;;;;37.23;21.47;;;-7.20;99.90;;;;;;4996809;28;20176;-65
2024/01/10 03:52:46;;;;;;;40.85;19.77;;;-7.20;99.90;;;;;;5003021;28;20435;-66
2024/01/10 03:55:15;;;;;;;41.22;23.70;;;-7.20;99.90;;;;;;5008439;28;20491;-64
2024/01/10 03:57:41;;;;;;;39.63;23.00;;;-7.20;99.90;;;;;;4999421;28;20195;-64
2024/01/10 04:00:07;;;;;;;37.50;21.10;;;-7.20;99.90;;;;;;5010390;28;20542;-65
2024/01/10 04:02:32;;;;;;;41.73;23.07;;;-7.20;99.90;;;;;;5004138;28;20463;-64
2024/01/10 04:04:58;;;;;;;52.03;22.03;;;-7.20;99.90;;;;;;5005684;28;20493;-63
2024/01/10 04:07:27;;;;;;;40.28;21.45;;;-7.20;99.90;;;;;;5008574;28;20280;-65
2024/01/10 04:09:52;;;;;;;42.13;22.25;;;-7.20;99.90;;;;;;5009451;28;20176;-64
2024/01/10 04:12:18;;;;;;;43.67;20.50;;;-7.10;99.90;;;;;;5010121;28;20188;-65
2024/01/10 04:14:43;;;;;;;38.97;21.00;;;-7.20;99.90;;;;;;5010500;28;20196;-64
2024/01/10 04:17:09;;;;;;;33.33;19.87;;;-7.20;99.90;;;;;;5010017;28;20239;-63
2024/01/10 04:19:35;;;;;;;44.13;20.77;;;-7.10;99.90;;;;;;4992588;28;20188;-65
2024/01/10 04:22:00;;;;;;;38.40;24.37;;;-7.20;99.90;;;;;;5010194;28;20168;-64
2024/01/10 04:24:26;;;;;;;41.43;21.37;;;-7.10;99.90;;;;;;5004525;28;20176;-64
2024/01/10 04:26:52;;;;;;;41.10;21.50;;;-7.10;99.90;;;;;;5006424;28;20258;-64
2024/01/10 04:29:17;;;;;;;40.53;22.53;;;-7.10;99.90;;;;;;5009619;28;20183;-64
2024/01/10 04:31:43;;;;;;;41.57;20.20;;;-7.10;99.90;;;;;;5009781;28;20280;-65
2024/01/10 04:34:08;;;;;;;35.60;20.07;;;-7.10;99.90;;;;;;5009733;28;20181;-65
2024/01/10 04:36:34;;;;;;;33.57;20.27;;;-7.00;99.90;;;;;;5010386;28;20673;-64
2024/01/10 04:38:59;;;;;;;41.53;22.13;;;-7.00;99.90;;;;;;5009693;28;20215;-64
2024/01/10 04:41:25;;;;;;;46.93;24.57;;;-7.00;99.90;;;;;;5009562;28;20196;-64
2024/01/10 04:43:51;;;;;;;38.63;21.60;;;-7.00;99.90;;;;;;5012836;28;20218;-65
2024/01/10 04:46:17;;;;;;;37.92;20.10;;;-7.10;99.90;;;;;;5009789;28;20723;-66
2024/01/10 04:48:43;;;;;;;31.27;18.83;;;-7.10;99.90;;;;;;5009599;28;20262;-65
2024/01/10 04:51:09;;;;;;;33.57;18.53;;;-7.10;99.90;;;;;;5010005;28;20635;-64
2024/01/10 04:53:34;;;;;;;45.73;22.60;;;-7.00;99.90;;;;;;5009760;28;20172;-63
2024/01/10 04:56:00;;;;;;;38.53;19.80;;;-7.10;99.90;;;;;;5009549;28;20192;-64
2024/01/10 04:58:26;;;;;;;51.30;23.10;;;-7.00;99.90;;;;;;5009687;28;20200;-66
2024/01/10 05:00:52;;;;;;;38.33;22.37;;;-7.00;99.90;;;;;;5009565;28;20251;-64
2024/01/10 05:03:17;;;;;;;43.00;24.07;;;-7.00;99.90;;;;;;5009845;28;20227;-64
2024/01/10 05:05:43;;;;;;;39.97;23.90;;;-7.00;99.90;;;;;;5008438;28;20515;-65
2024/01/10 05:08:09;;;;;;;39.83;22.57;;;-7.00;99.90;;;;;;5009879;28;20403;-65
2024/01/10 05:10:34;;;;;;;41.43;22.93;;;-7.10;99.90;;;;;;5009661;28;20180;-65
2024/01/10 05:13:00;;;;;;;44.80;24.17;;;-7.10;99.90;;;;;;5009688;28;20172;-64
2024/01/10 05:15:25;;;;;;;45.27;23.73;;;-7.10;99.90;;;;;;5009412;28;20203;-65
2024/01/10 05:17:52;;;;;;;37.13;20.37;;;-7.10;99.90;;;;;;5007615;28;20909;-65
2024/01/10 05:20:17;;;;;;;38.17;21.17;;;-7.10;99.90;;;;;;5009661;28;20735;-63
2024/01/10 05:22:43;;;;;;;42.53;23.10;;;-7.10;99.90;;;;;;5009733;28;20487;-64
2024/01/10 05:25:09;;;;;;;45.43;23.40;;;-7.10;99.90;;;;;;4982211;28;20613;-64
2024/01/10 05:27:34;;;;;;;39.93;23.23;;;-7.10;99.90;;;;;;5012203;28;20521;-64
2024/01/10 05:30:00;;;;;;;44.07;23.50;;;-7.20;99.90;;;;;;5009896;28;20169;-65
2024/01/10 05:32:26;;;;;;;39.67;19.80;;;-7.10;99.90;;;;;;5014706;28;20247;-65
2024/01/10 05:34:53;;;;;;;39.90;20.85;;;-7.10;99.90;;;;;;5013274;28;20168;-64
2024/01/10 05:37:19;;;;;;;43.73;23.60;;;-7.10;99.90;;;;;;5009597;28;20637;-65
2024/01/10 05:39:44;;;;;;;46.57;22.57;;;-7.10;99.90;;;;;;5005637;28;20487;-64
2024/01/10 05:42:10;;;;;;;48.00;24.30;;;-7.20;99.90;;;;;;5009648;28;20486;-64
2024/01/10 05:44:36;;;;;;;47.23;24.37;;;-7.20;99.90;;;;;;5005842;28;20603;-64
2024/01/10 05:47:02;;;;;;;44.80;22.33;;;-7.20;99.90;;;;;;5012418;28;20434;-65
2024/01/10 05:49:28;;;;;;;40.30;22.33;;;-7.20;99.90;;;;;;5008288;28;20270;-65
2024/01/10 05:51:54;;;;;;;36.17;24.10;;;-7.20;99.90;;;;;;5007959;28;20259;-63
2024/01/10 05:54:20;;;;;;;37.60;20.37;;;-7.20;99.90;;;;;;5006815;28;20434;-65
2024/01/10 05:56:45;;;;;;;43.07;23.97;;;-7.20;99.90;;;;;;5011749;28;20773;-64
2024/01/10 05:59:11;;;;;;;49.03;24.30;;;-7.10;99.90;;;;;;5011123;28;20298;-64
2024/01/10 06:01:38;;;;;;;45.20;23.87;;;-7.10;99.90;;;;;;5012570;28;20169;-64
2024/01/10 06:04:04;;;;;;;38.17;22.00;;;-7.10;99.90;;;;;;5012273;28;20168;-64
2024/01/10 06:06:30;;;;;;;40.22;19.73;;;-7.10;99.90;;;;;;5003611;28;20597;-64
2024/01/10 06:08:56;;;;;;;51.23;22.23;;;-7.10;99.90;;;;;;4999130;28;20603;-65
2024/01/10 06:11:22;;;;;;;39.13;22.20;;;-7.10;99.90;;;;;;5012670;28;20498;-65
2024/01/10 06:13:47;;;;;;;39.23;22.00;;;-7.10;99.90;;;;;;5010028;28;20180;-64
2024/01/10 06:16:13;;;;;;;35.70;23.97;;;-7.10;99.90;;;;;;5003635;28;20287;-64
2024/01/10 06:18:39;;;;;;;41.83;25.50;;;-7.10;99.90;;;;;;5004323;28;20239;-65
2024/01/10 06:21:04;;;;;;;40.47;22.50;;;-7.10;99.90;;;;;;5011136;28;20177;-65
2024/01/10 06:23:30;;;;;;;45.27;21.33;;;-7.00;99.90;;;;;;5010223;28;20419;-66
2024/01/10 06:25:56;;;;;;;42.43;23.37;;;-7.00;99.90;;;;;;4994819;28;20199;-66
2024/01/10 06:28:23;;;;;;;38.83;20.77;;;-7.00;99.90;;;;;;5007924;28;20828;-65
2024/01/10 06:30:49;;;;;;;51.87;23.27;;;-7.00;99.90;;;;;;5010376;28;20184;-66
2024/01/10 06:33:15;;;;;;;45.80;23.57;;;-7.00;99.90;;;;;;5011981;28;20489;-65
2024/01/10 06:35:43;;;;;;;38.00;21.10;;;-7.00;99.90;;;;;;5005037;28;20203;-65
2024/01/10 06:38:09;;;;;;;36.57;20.50;;;-7.00;99.90;;;;;;5011837;28;20192;-65
2024/01/10 06:40:35;;;;;;;51.73;26.07;;;-7.00;99.90;;;;;;5012076;28;20473;-65
2024/01/10 06:43:00;;;;;;;38.00;22.13;;;-7.00;99.90;;;;;;5006840;28;20419;-65
2024/01/10 06:45:26;;;;;;;41.80;19.57;;;-7.00;99.90;;;;;;5014825;28;20605;-65
2024/01/10 06:47:52;;;;;;;43.03;21.40;;;-7.00;99.90;;;;;;5008731;28;20206;-65
2024/01/10 06:50:19;;;;;;;38.97;22.27;;;-7.00;99.90;;;;;;5006336;28;20519;-65
2024/01/10 06:52:45;;;;;;;44.40;20.50;;;-7.00;99.90;;;;;;5011724;28;20176;-65
2024/01/10 06:55:11;;;;;;;39.37;24.37;;;-7.00;99.90;;;;;;5010873;28;20529;-66
2024/01/10 06:57:37;;;;;;;47.63;27.50;;;-7.00;99.90;;;;;;5011190;28;20611;-65
2024/01/10 07:00:06;;;;;;;42.85;23.42;;;-6.90;99.90;;;;;;5011220;28;20188;-65
2024/01/10 07:02:32;;;;;;;39.57;23.03;;;-6.90;99.90;;;;;;5011000;28;20172;-64
2024/01/10 07:04:58;;;;;;;48.17;22.07;;;-6.90;99.90;;;;;;5011283;28;20498;-64
2024/01/10 07:07:23;;;;;;;49.60;26.10;;;-6.90;99.90;;;;;;5011476;28;20189;-65
2024/01/10 07:09:49;;;;;;;51.13;26.97;;;-6.80;99.90;;;;;;5011773;28;20180;-66
2024/01/10 07:12:14;;;;;;;48.30;25.47;;;-6.80;99.90;;;;;;5011412;28;20184;-64
2024/01/10 07:14:40;;;;;;;53.73;22.90;;;-6.80;99.90;;;;;;5011880;28;20323;-65
2024/01/10 07:17:07;;;;;;;42.80;22.67;;;-6.80;99.90;;;;;;5011565;28;20199;-65
2024/01/10 07:19:32;;;;;;;41.90;20.25;;;-6.80;99.90;;;;;;5009958;28;20674;-65
2024/01/10 07:21:58;;;;;;;43.47;22.30;;;-6.80;99.90;;;;;;5010960;28;20188;-63
2024/01/10 07:24:23;;;;;;;40.83;23.60;;;-6.80;99.90;;;;;;5009530;28;20719;-65
2024/01/10 07:26:49;;;;;;;40.60;23.23;;;-6.70;99.90;;;;;;5010878;28;20193;-65
2024/01/10 07:29:15;;;;;;;42.77;23.67;;;-6.70;99.90;;;;;;5010415;28;20268;-65
2024/01/10 07:31:40;;;;;;;40.97;24.30;;;-6.70;99.90;;;;;;5015294;28;20256;-64
2024/01/10 07:34:06;;;;;;;46.90;22.17;;;-6.70;99.90;;;;;;5010803;28;20181;-65
2024/01/10 07:36:36;;;;;;;44.97;21.77;;;-6.70;99.90;;;;;;5010709;28;20284;-65
2024/01/10 07:39:01;;;;;;;50.53;24.85;;;-6.70;99.90;;;;;;5008051;28;20542;-65
2024/01/10 07:41:27;;;;;;;38.60;21.70;;;-6.60;99.90;;;;;;5010176;28;20255;-65
2024/01/10 07:43:53;;;;;;;53.40;24.67;;;-6.60;99.90;;;;;;4994242;28;20184;-63
2024/01/10 07:46:19;;;;;;;57.20;25.50;;;-6.60;99.90;;;;;;5015387;28;20227;-65
2024/01/10 07:48:44;;;;;;;48.50;26.47;;;-6.50;99.90;;;;;;5008081;28;20200;-65
2024/01/10 07:51:10;;;;;;;47.57;23.50;;;-6.50;99.90;;;;;;5008673;28;20179;-65
2024/01/10 07:53:36;;;;;;;47.93;25.57;;;-6.40;99.90;;;;;;5010612;28;20514;-65
2024/01/10 07:56:02;;;;;;;48.30;26.63;;;-6.40;99.90;;;;;;5012444;28;20462;-65
2024/01/10 07:58:27;;;;;;;41.00;24.23;;;-6.40;99.90;;;;;;5008944;28;20596;-65
2024/01/10 08:00:54;;;;;;;47.17;25.97;;;-6.30;99.90;;;;;;4999940;28;20176;-64
2024/01/10 08:03:19;;;;;;;44.10;27.67;;;-6.30;99.90;;;;;;5008131;28;20211;-64
2024/01/10 08:05:46;;;;;;;45.20;24.07;;;-6.20;99.90;;;;;;5005631;28;20974;-64
2024/01/10 08:08:13;;;;;;;57.20;24.80;;;-6.10;99.90;;;;;;5010366;28;20203;-65
2024/01/10 08:10:39;;;;;;;47.77;27.40;;;-6.10;99.90;;;;;;5005270;28;20506;-66
2024/01/10 08:13:05;;;;;;;40.83;22.60;;;-6.00;99.90;;;;;;5003480;28;20435;-65
2024/01/10 08:15:34;;;;;;;45.40;24.30;;;-6.00;99.90;;;;;;5001535;28;20525;-66
2024/01/10 08:18:02;;;;;;;48.90;26.70;;;-6.00;99.90;;;;;;5010694;28;20192;-67
2024/01/10 08:20:28;;;;;;;51.37;27.37;;;-5.90;99.90;;;;;;5006948;28;20411;-65
2024/01/10 08:22:54;;;;;;;45.43;25.77;;;-5.90;99.90;;;;;;4995556;28;20446;-67
2024/01/10 08:25:19;;;;;;;43.30;25.20;;;-5.80;99.90;;;;;;5009729;28;20545;-64
2024/01/10 08:27:45;;;;;;;43.97;23.53;;;-5.70;99.90;;;;;;5010447;28;20168;-65
2024/01/10 08:30:11;;;;;;;51.60;25.43;;;-5.60;99.90;;;;;;5009422;28;20218;-65
2024/01/10 08:32:37;;;;;;;53.73;27.90;;;-5.40;99.90;;;;;;5010330;28;20230;-65
2024/01/10 08:35:05;;;;;;;49.23;28.57;;;-5.40;99.90;;;;;;5007203;28;20411;-62
2024/01/10 08:37:31;;;;;;;44.90;27.23;;;-5.30;99.90;;;;;;5009465;28;20545;-64
2024/01/10 08:40:00;;;;;;;45.43;26.43;;;-5.10;99.90;;;;;;5009522;28;20422;-64
2024/01/10 08:42:25;;;;;;;46.53;25.97;;;-5.00;99.90;;;;;;5007944;28;20172;-64
2024/01/10 08:44:51;;;;;;;52.00;29.80;;;-4.80;99.90;;;;;;5009351;28;20427;-64
2024/01/10 08:47:17;;;;;;;50.77;26.00;;;-4.50;99.90;;;;;;5009688;28;20569;-64
2024/01/10 08:49:42;;;;;;;53.17;28.57;;;-4.30;99.90;;;;;;5002121;28;20180;-64
2024/01/10 08:52:08;;;;;;;46.87;27.30;;;-4.30;99.90;;;;;;5002312;28;20173;-63
2024/01/10 08:54:33;;;;;;;59.07;30.10;;;-4.20;99.90;;;;;;5007916;28;20169;-63
2024/01/10 08:57:00;;;;;;;44.90;27.70;;;-4.00;99.90;;;;;;5009334;28;20632;-64
2024/01/10 08:59:27;;;;;;;55.70;26.57;;;-4.00;99.90;;;;;;5012456;28;20251;-64
2024/01/10 09:01:53;;;;;;;49.20;27.37;;;-3.80;99.90;;;;;;5003651;28;20454;-63
2024/01/10 09:04:19;;;;;;;38.73;24.80;;;-3.60;99.90;;;;;;5008505;28;20430;-66
2024/01/10 09:06:45;;;;;;;55.13;27.10;;;-4.00;99.90;;;;;;5006722;28;20192;-64
2024/01/10 09:09:12;;;;;;;47.70;28.80;;;-3.70;99.90;;;;;;5008546;28;20968;-65
2024/01/10 09:11:38;;;;;;;48.70;26.87;;;-3.70;99.90;;;;;;5009441;28;20188;-67
2024/01/10 09:14:04;;;;;;;44.20;26.77;;;-4.10;99.90;;;;;;5013313;28;20411;-65
2024/01/10 09:16:29;;;;;;;52.30;30.00;;;-4.30;99.90;;;;;;5012948;28;20235;-64
2024/01/10 09:18:57;;;;;;;49.30;26.90;;;-4.30;99.90;;;;;;5013257;28;20188;-65
2024/01/10 09:21:24;;;;;;;42.97;27.00;;;-4.30;99.90;;;;;;5006422;28;20549;-64
2024/01/10 09:23:51;;;;;;;51.53;29.67;;;-4.50;99.90;;;;;;5014107;28;20411;-64
2024/01/10 09:26:18;;;;;;;61.73;28.23;;;-4.30;99.90;;;;;;5017179;28;20435;-65
2024/01/10 09:28:43;;;;;;;49.13;27.17;;;-4.30;99.90;;;;;;5013256;28;20415;-64
2024/01/10 09:31:09;;;;;;;46.77;27.67;;;-4.30;99.90;;;;;;5012805;28;20940;-65
2024/01/10 09:33:35;;;;;;;49.83;27.03;;;-4.40;99.90;;;;;;5013213;28;20205;-64
2024/01/10 09:36:00;;;;;;;45.67;28.13;;;-4.50;99.90;;;;;;5012805;28;20934;-65
2024/01/10 09:38:26;;;;;;;47.27;27.80;;;-4.40;99.90;;;;;;5012229;28;20641;-65
2024/01/10 09:41:02;;;;;;;53.57;26.47;;;-4.40;99.90;;;;;;5005533;28;20197;-65
2024/01/10 09:43:30;;;;;;;39.90;23.87;;;-4.30;99.90;;;;;;5015247;28;20170;-65
2024/01/10 09:45:58;;;;;;;54.23;27.90;;;-4.40;99.90;;;;;;5017766;28;20450;-65
2024/01/10 09:48:24;;;;;;;46.77;26.50;;;-4.30;99.90;;;;;;5012107;28;20914;-64
2024/01/10 09:50:51;;;;;;;52.43;29.33;;;-4.30;99.90;;;;;;5008649;28;20871;-65
2024/01/10 09:53:27;;;;;;;48.60;26.27;;;-4.20;99.90;;;;;;5010942;28;20419;-65
2024/01/10 09:55:56;;;;;;;53.13;28.47;;;-4.10;99.90;;;;;;5018699;28;20994;-64
2024/01/10 09:58:25;;;;;;;45.50;27.70;;;-4.10;99.90;;;;;;5013620;28;20443;-64
2024/01/10 10:00:51;;;;;;;44.40;25.73;;;-4.10;99.90;;;;;;5019531;28;20407;-65
2024/01/10 10:03:18;;;;;;;57.20;29.33;;;-4.20;99.90;;;;;;5012111;28;20490;-65
2024/01/10 10:05:44;;;;;;;55.70;30.10;;;-4.10;99.90;;;;;;5012709;28;20427;-63
2024/01/10 10:08:12;;;;;;;53.13;29.90;;;-4.10;99.90;;;;;;5012676;28;20446;-63
2024/01/10 10:10:42;;;;;;;41.07;27.10;;;-4.00;99.90;;;;;;5012522;28;20529;-64
2024/01/10 10:13:10;;;;;;;51.57;27.77;;;-4.00;99.90;;;;;;5012366;28;20411;-63
2024/01/10 10:15:37;;;;;;;54.57;29.90;;;-3.90;99.90;;;;;;5009261;28;20972;-63
2024/01/10 10:18:03;;;;;;;51.47;27.20;;;-3.90;99.90;;;;;;5012155;28;20443;-67
2024/01/10 10:20:32;;;;;;;55.97;27.60;;;-3.90;99.90;;;;;;5012211;28;20786;-66
2024/01/10 10:23:12;;;;;;;50.10;27.40;;;-3.90;99.90;;;;;;4999868;28;20466;-67
2024/01/10 10:25:48;;;;;;;44.10;26.40;;;-3.80;99.90;;;;;;5003837;28;20522;-63
2024/01/10 10:28:15;;;;;;;43.20;25.80;;;-3.70;99.90;;;;;;5010104;28;20399;-65
2024/01/10 10:30:40;;;;;;;52.10;27.33;;;-3.70;99.90;;;;;;5010356;28;20414;-67
2024/01/10 10:33:09;;;;;;;52.67;25.03;;;-3.70;99.90;;;;;;5010683;28;20411;-64
2024/01/10 10:35:34;;;;;;;45.17;25.27;;;-3.60;99.90;;;;;;5009496;28;20540;-64
2024/01/10 10:38:00;;;;;;;45.83;23.80;;;-3.60;99.90;;;;;;5008518;28;20442;-65
2024/01/10 10:40:26;;;;;;;37.83;21.50;;;-3.60;99.90;;;;;;5008663;28;20183;-65
2024/01/10 10:42:57;;;;;;;37.47;18.63;;;-3.50;99.90;;;;;;5011156;28;20160;-63
2024/01/10 10:45:26;;;;;;;36.20;21.10;;;-3.40;99.90;;;;;;5009188;28;20232;-65
2024/01/10 10:47:58;;;;;;;35.23;21.73;;;-3.20;99.90;;;;;;5011215;28;20419;-63
2024/01/10 10:50:29;;;;;;;40.83;20.70;;;-3.20;99.90;;;;;;5010428;28;20403;-64
2024/01/10 10:52:58;;;;;;;32.13;17.97;;;-3.10;99.90;;;;;;5011314;28;20418;-65
2024/01/10 10:55:26;;;;;;;46.90;21.50;;;-3.00;99.90;;;;;;5009110;28;20412;-64
2024/01/10 10:57:53;;;;;;;38.47;22.33;;;-2.90;99.90;;;;;;5010407;28;20411;-62
2024/01/10 11:00:21;;;;;;;40.73;20.50;;;-2.80;99.90;;;;;;5010646;28;20796;-62
2024/01/10 11:02:47;;;;;;;29.07;17.30;;;-2.80;99.90;;;;;;5011430;28;20416;-65
2024/01/10 11:05:13;;;;;;;31.93;17.07;;;-2.80;99.90;;;;;;5010348;28;20481;-64
2024/01/10 11:07:41;;;;;;;36.30;18.70;;;-2.80;99.90;;;;;;5011867;28;20415;-63
2024/01/10 11:10:22;;;;;;;27.23;16.53;;;-2.60;99.90;;;;;;5012287;28;20442;-63
2024/01/10 11:13:03;;;;;;;29.20;19.07;;;-2.60;99.90;;;;;;5008122;28;20454;-64
2024/01/10 11:16:15;;;;;;;24.50;15.63;;;-2.50;99.90;;;;;;5010995;28;20439;-63
2024/01/10 11:19:12;;;;;;;28.93;17.57;;;-2.40;99.90;;;;;;5005231;28;20455;-64
2024/01/10 11:21:52;;;;;;;33.90;18.43;;;-2.30;99.90;;;;;;5010831;28;20894;-65
2024/01/10 11:24:19;;;;;;;32.20;19.00;;;-2.40;99.90;;;;;;5010798;28;20411;-65
2024/01/10 11:26:45;;;;;;;33.80;17.47;;;-2.30;99.90;;;;;;5010894;28;20423;-64
2024/01/10 11:29:12;;;;;;;45.07;17.40;;;-2.30;99.90;;;;;;5011070;28;20419;-64
2024/01/10 11:31:39;;;;;;;31.00;16.47;;;-2.10;99.90;;;;;;5009667;28;20764;-64
2024/01/10 11:34:05;;;;;;;31.43;17.20;;;-2.00;99.90;;;;;;5010250;28;20436;-64
2024/01/10 11:36:31;;;;;;;29.20;17.10;;;-2.00;99.90;;;;;;5008515;28;20524;-65
2024/01/10 11:38:58;;;;;;;30.57;16.23;;;-2.00;99.90;;;;;;5010707;28;20235;-64
2024/01/10 11:41:29;;;;;;;28.10;15.17;;;-1.90;99.90;;;;;;5010427;28;20415;-66
2024/01/10 11:44:17;;;;;;;26.33;16.90;;;-2.00;99.70;;;;;;5010674;28;20502;-69
2024/01/10 11:46:57;;;;;;;36.93;16.83;;;-2.00;99.30;;;;;;5010231;28;20815;-68
2024/01/10 11:49:24;;;;;;;25.97;16.10;;;-1.80;99.90;;;;;;5010382;28;20510;-69
2024/01/10 11:51:57;;;;;;;29.70;18.33;;;-1.80;99.60;;;;;;5007991;28;20424;-64
2024/01/10 11:54:40;;;;;;;31.17;17.70;;;-1.70;99.40;;;;;;5010658;28;20423;-63
2024/01/10 11:57:18;;;;;;;31.73;16.83;;;-1.70;98.90;;;;;;5000131;28;20539;-63
2024/01/10 11:59:45;;;;;;;31.03;18.50;;;-1.70;98.30;;;;;;4997796;28;20463;-63
2024/01/10 12:02:12;;;;;;;25.47;15.37;;;-1.60;98.10;;;;;;4999340;28;20481;-63
2024/01/10 12:04:38;;;;;;;32.70;17.70;;;-1.60;97.90;;;;;;5001090;28;20422;-64
2024/01/10 12:07:07;;;;;;;29.67;16.60;;;-1.50;98.10;;;;;;5006320;28;20436;-65
2024/01/10 12:09:33;;;;;;;26.83;15.40;;;-1.50;97.80;;;;;;5004199;28;20184;-63
2024/01/10 12:12:00;;;;;;;28.97;19.10;;;-1.40;97.70;;;;;;4999594;28;20427;-63
2024/01/10 12:14:26;;;;;;;26.60;18.03;;;-1.40;97.80;;;;;;4999654;28;20510;-64
2024/01/10 12:16:54;;;;;;;36.83;19.23;;;-1.30;98.60;;;;;;4995756;28;20467;-63
2024/01/10 12:19:20;;;;;;;32.53;20.20;;;-1.30;98.10;;;;;;5000615;28;20493;-64
2024/01/10 12:21:47;;;;;;;29.67;16.20;;;-1.20;98.50;;;;;;5005117;28;20415;-64
2024/01/10 12:24:13;;;;;;;32.90;17.60;;;-1.20;97.70;;;;;;5003371;28;20236;-63
2024/01/10 12:26:49;;;;;;;28.47;17.90;;;-1.20;97.10;;;;;;5000561;28;20443;-63